Time;durP1;ratioP1;P1;durP2;ratioP2;P2;SDS_P1;SDS_P2;PMS_P1;PMS_P2;Temp;Humidity;BMP_temperature;BMP_pressure;BME280_temperature;BME280_humidity;BME280_pressure;Samples;Min_cycle;Max_cycle;Signal;HPM_P1;HPM_P2
2022/02/06 00:01:36;;;;;;;19.33;13.85;;;;;;;;;;10280027;28;20124;-62
2022/02/06 00:06:35;;;;;;;14.25;11.45;;;;;;;;;;10286014;28;20127;-62
2022/02/06 00:11:34;;;;;;;14.50;12.23;;;;;;;;;;10281104;28;20073;-62
2022/02/06 00:16:33;;;;;;;16.40;13.13;;;;;;;;;;10287139;28;20072;-61
2022/02/06 00:21:34;;;;;;;21.90;15.95;;;;;;;;;;10284570;28;20040;-62
2022/02/06 00:26:38;;;;;;;19.98;14.13;;;;;;;;;;10290962;28;20041;-61
2022/02/06 00:31:50;;;;;;;23.25;15.65;;;;;;;;;;10286384;28;20085;-61
2022/02/06 00:42:04;;;;;;;20.30;15.75;;;;;;;;;;10284963;28;20072;-62
2022/02/06 00:47:04;;;;;;;14.77;12.13;;;;;;;;;;10287016;28;20052;-62
2022/02/06 00:52:08;;;;;;;19.58;14.93;;;;;;;;;;10282957;28;20076;-62
2022/02/06 00:57:07;;;;;;;20.60;15.55;;;;;;;;;;10280316;28;20065;-62
2022/02/06 01:02:06;;;;;;;21.10;15.32;;;;;;;;;;10283449;28;20509;-62
2022/02/06 01:07:05;;;;;;;18.70;15.07;;;;;;;;;;10280412;28;20069;-61
2022/02/06 01:12:03;;;;;;;14.50;13.00;;;;;;;;;;10281942;28;20075;-62
2022/02/06 01:17:14;;;;;;;19.23;14.95;;;;;;;;;;10280505;28;20047;-62
2022/02/06 01:22:19;;;;;;;19.33;13.35;;;;;;;;;;10277844;28;20026;-63
2022/02/06 01:27:21;;;;;;;20.63;16.30;;;;;;;;;;10280801;28;20040;-61
2022/02/06 01:32:24;;;;;;;23.80;15.52;;;;;;;;;;10278331;28;20091;-60
2022/02/06 01:37:30;;;;;;;21.98;15.90;;;;;;;;;;10279314;28;20041;-60
2022/02/06 01:42:34;;;;;;;20.98;14.13;;;;;;;;;;10278583;28;20091;-61
2022/02/06 02:03:31;;;;;;;17.80;13.70;;;;;;;;;;10288117;28;20059;-60
2022/02/06 02:14:21;;;;;;;16.77;14.47;;;;;;;;;;10281297;28;20454;-61
2022/02/06 02:30:38;;;;;;;19.25;13.35;;;;;;;;;;10277479;28;20489;-61
2022/02/06 02:46:30;;;;;;;17.85;13.90;;;;;;;;;;10263438;28;20049;-61
2022/02/06 02:51:33;;;;;;;14.52;12.25;;;;;;;;;;10276005;28;20099;-61
2022/02/06 02:56:41;;;;;;;19.25;12.48;;;;;;;;;;10282915;28;20502;-61
2022/02/06 03:01:47;;;;;;;14.32;11.60;;;;;;;;;;10279794;28;20071;-60
2022/02/06 03:06:45;;;;;;;15.07;12.20;;;;;;;;;;10287388;28;20052;-61
2022/02/06 03:11:45;;;;;;;15.35;12.55;;;;;;;;;;10288182;28;20079;-62
2022/02/06 03:16:50;;;;;;;16.67;12.63;;;;;;;;;;10290786;28;20073;-62
2022/02/06 03:21:48;;;;;;;14.70;12.50;;;;;;;;;;10290259;28;20063;-61
2022/02/06 03:26:49;;;;;;;18.77;13.88;;;;;;;;;;10290096;28;20076;-60
2022/02/06 03:31:48;;;;;;;18.25;12.75;;;;;;;;;;10286973;28;20084;-61
2022/02/06 03:36:46;;;;;;;15.45;12.70;;;;;;;;;;10285103;28;20500;-61
2022/02/06 03:42:04;;;;;;;17.60;12.80;;;;;;;;;;10279548;28;20068;-60
2022/02/06 03:47:08;;;;;;;17.70;11.77;;;;;;;;;;10281932;28;20048;-61
2022/02/06 03:52:07;;;;;;;18.00;13.60;;;;;;;;;;10277964;28;20080;-61
2022/02/06 03:57:06;;;;;;;19.30;14.23;;;;;;;;;;10281893;28;20342;-61
2022/02/06 04:02:06;;;;;;;16.52;13.77;;;;;;;;;;10282281;28;20544;-61
2022/02/06 04:07:07;;;;;;;14.43;12.57;;;;;;;;;;10282124;28;20079;-61
2022/02/06 04:12:06;;;;;;;17.05;12.80;;;;;;;;;;10293179;28;20076;-61
2022/02/06 04:17:18;;;;;;;15.98;13.20;;;;;;;;;;10283758;28;20402;-61
2022/02/06 04:22:16;;;;;;;19.05;14.30;;;;;;;;;;10284817;28;20449;-62
2022/02/06 04:27:15;;;;;;;19.27;14.32;;;;;;;;;;10282327;28;20041;-62
2022/02/06 04:32:14;;;;;;;17.52;13.40;;;;;;;;;;10286359;28;20095;-60
2022/02/06 04:37:19;;;;;;;16.70;13.85;;;;;;;;;;10284462;28;20099;-62
2022/02/06 04:42:27;;;;;;;16.27;13.13;;;;;;;;;;10282277;28;20395;-62
2022/02/06 05:19:57;;;;;;;21.40;14.00;;;;;;;;;;10282211;28;20071;-62
2022/02/06 05:25:16;;;;;;;16.35;11.82;;;;;;;;;;10283308;28;20418;-61
2022/02/06 05:30:18;;;;;;;14.25;10.57;;;;;;;;;;10284343;28;20080;-61
2022/02/06 05:35:18;;;;;;;13.98;10.95;;;;;;;;;;10276785;28;20068;-61
2022/02/06 05:40:16;;;;;;;15.25;11.43;;;;;;;;;;10282345;28;20075;-61
2022/02/06 05:45:18;;;;;;;20.88;17.15;;;;;;;;;;10284693;28;20117;-61
2022/02/06 05:50:19;;;;;;;15.68;11.18;;;;;;;;;;10278785;28;20510;-62
2022/02/06 05:55:18;;;;;;;13.48;10.27;;;;;;;;;;10282083;28;20422;-61
2022/02/06 06:00:16;;;;;;;11.00;9.65;;;;;;;;;;10282770;28;20447;-62
2022/02/06 06:05:14;;;;;;;13.40;11.10;;;;;;;;;;10284661;28;20454;-61
2022/02/06 06:10:14;;;;;;;15.50;11.27;;;;;;;;;;10282858;28;20068;-60
2022/02/06 06:15:12;;;;;;;20.15;14.98;;;;;;;;;;10278989;28;20114;-61
2022/02/06 06:20:17;;;;;;;16.15;11.10;;;;;;;;;;10273019;28;20071;-62
2022/02/06 06:25:16;;;;;;;16.53;11.07;;;;;;;;;;10277726;28;20521;-63
2022/02/06 06:30:15;;;;;;;18.05;13.07;;;;;;;;;;10276442;28;20091;-61
2022/02/06 06:35:15;;;;;;;20.67;15.68;;;;;;;;;;10273903;28;20442;-61
2022/02/06 06:40:14;;;;;;;16.45;13.13;;;;;;;;;;10274094;28;20056;-60
2022/02/06 06:45:14;;;;;;;15.18;10.90;;;;;;;;;;10274442;28;20057;-61
2022/02/06 06:50:12;;;;;;;16.73;12.00;;;;;;;;;;10270420;28;20080;-60
2022/02/06 06:55:13;;;;;;;19.23;12.05;;;;;;;;;;10273565;28;20126;-62
2022/02/06 07:00:37;;;;;;;19.40;12.85;;;;;;;;;;10270335;28;20425;-62
2022/02/06 07:05:37;;;;;;;22.23;15.25;;;;;;;;;;10268626;28;20069;-60
2022/02/06 07:10:35;;;;;;;23.42;14.10;;;;;;;;;;10276747;28;20140;-60
2022/02/06 07:15:34;;;;;;;19.73;12.30;;;;;;;;;;10273484;28;20052;-62
2022/02/06 07:20:33;;;;;;;12.40;8.35;;;;;;;;;;10268568;28;20447;-61
2022/02/06 07:25:34;;;;;;;20.88;13.52;;;;;;;;;;10270731;28;20087;-62
2022/02/06 07:30:33;;;;;;;13.07;9.93;;;;;;;;;;10268523;28;20128;-62
2022/02/06 07:35:31;;;;;;;17.38;12.15;;;;;;;;;;10268428;28;20077;-61
2022/02/06 07:40:30;;;;;;;20.20;14.38;;;;;;;;;;10274743;28;20060;-62
2022/02/06 07:45:31;;;;;;;29.20;18.25;;;;;;;;;;10274941;28;20073;-62
2022/02/06 07:50:30;;;;;;;27.13;17.80;;;;;;;;;;10277361;28;20072;-61
2022/02/06 07:55:28;;;;;;;21.42;14.63;;;;;;;;;;10279121;28;20454;-61
2022/02/06 08:00:26;;;;;;;13.85;7.68;;;;;;;;;;10280201;28;20114;-62
2022/02/06 08:05:27;;;;;;;39.55;21.05;;;;;;;;;;10274277;28;20080;-61
2022/02/06 08:10:26;;;;;;;37.70;21.30;;;;;;;;;;10281058;28;20071;-62
2022/02/06 08:15:25;;;;;;;17.00;10.80;;;;;;;;;;10272436;28;20135;-61
2022/02/06 08:20:23;;;;;;;20.52;14.80;;;;;;;;;;10274239;28;20564;-62
2022/02/06 08:25:24;;;;;;;15.60;11.20;;;;;;;;;;10277951;28;20076;-61
2022/02/06 08:30:22;;;;;;;17.30;10.20;;;;;;;;;;10280387;28;20057;-63
2022/02/06 08:35:22;;;;;;;19.75;11.35;;;;;;;;;;10281626;28;20061;-63
2022/02/06 08:40:21;;;;;;;14.68;11.40;;;;;;;;;;10280996;28;20045;-63
2022/02/06 08:45:22;;;;;;;12.38;9.95;;;;;;;;;;10284001;28;20068;-63
2022/02/06 08:50:21;;;;;;;16.70;12.57;;;;;;;;;;10281981;28;20075;-63
2022/02/06 08:55:20;;;;;;;18.73;11.70;;;;;;;;;;10282029;28;20072;-63
2022/02/06 09:00:21;;;;;;;9.18;6.95;;;;;;;;;;10279431;28;20072;-63
2022/02/06 09:05:19;;;;;;;18.63;12.23;;;;;;;;;;10280091;28;20100;-63
2022/02/06 09:10:20;;;;;;;13.55;8.10;;;;;;;;;;10277231;28;20061;-63
2022/02/06 09:15:22;;;;;;;14.23;8.73;;;;;;;;;;10280947;28;20079;-63
2022/02/06 09:20:22;;;;;;;14.20;8.90;;;;;;;;;;10278678;28;20097;-63
2022/02/06 09:25:20;;;;;;;11.15;7.00;;;;;;;;;;10278609;28;20522;-63
2022/02/06 09:30:21;;;;;;;16.33;11.48;;;;;;;;;;10278763;28;20080;-63
2022/02/06 09:35:21;;;;;;;13.18;7.68;;;;;;;;;;10277953;28;20076;-63
2022/02/06 09:40:20;;;;;;;8.93;6.00;;;;;;;;;;10276442;28;20069;-63
2022/02/06 09:45:19;;;;;;;15.63;8.43;;;;;;;;;;10278292;28;20105;-63
2022/02/06 09:50:17;;;;;;;44.13;27.38;;;;;;;;;;10277610;28;20064;-63
2022/02/06 09:55:19;;;;;;;7.80;6.50;;;;;;;;;;10276775;28;20075;-63
2022/02/06 10:00:18;;;;;;;10.25;7.72;;;;;;;;;;10276001;28;20061;-63
2022/02/06 10:05:16;;;;;;;10.30;7.43;;;;;;;;;;10276959;28;20136;-63
2022/02/06 10:10:15;;;;;;;10.48;8.55;;;;;;;;;;10275906;28;20069;-63
2022/02/06 10:15:16;;;;;;;10.80;8.38;;;;;;;;;;10276699;28;20072;-63
2022/02/06 10:20:16;;;;;;;11.27;7.05;;;;;;;;;;10278432;28;20383;-63
2022/02/06 10:25:16;;;;;;;19.15;10.73;;;;;;;;;;10277213;28;20073;-63
2022/02/06 10:30:28;;;;;;;25.63;12.80;;;;;;;;;;10275132;28;20045;-63
2022/02/06 10:35:34;;;;;;;8.77;6.10;;;;;;;;;;10280495;28;20084;-64
2022/02/06 10:40:32;;;;;;;9.60;5.97;;;;;;;;;;10275325;28;20520;-62
2022/02/06 10:45:37;;;;;;;10.35;6.18;;;;;;;;;;10273381;28;20037;-64
2022/02/06 10:50:38;;;;;;;17.08;6.65;;;;;;;;;;10275037;28;20073;-60
2022/02/06 10:55:50;;;;;;;12.40;6.60;;;;;;;;;;10270983;28;20080;-62
2022/02/06 11:00:50;;;;;;;11.02;7.13;;;;;;;;;;10271440;28;20076;-60
2022/02/06 11:05:51;;;;;;;11.80;7.38;;;;;;;;;;10267118;28;20456;-61
2022/02/06 11:10:54;;;;;;;14.93;7.75;;;;;;;;;;10276003;28;20461;-62
2022/02/06 11:15:54;;;;;;;13.65;6.95;;;;;;;;;;10275121;28;20137;-62
2022/02/06 11:20:53;;;;;;;10.15;6.50;;;;;;;;;;10276589;28;20175;-61
2022/02/06 11:25:52;;;;;;;22.67;12.70;;;;;;;;;;10274449;28;20063;-61
2022/02/06 11:30:51;;;;;;;44.78;31.88;;;;;;;;;;10281455;28;20084;-61
2022/02/06 11:35:56;;;;;;;33.08;21.63;;;;;;;;;;10284810;28;20072;-62
2022/02/06 11:46:43;;;;;;;41.40;28.88;;;;;;;;;;10279998;28;20068;-61
2022/02/06 11:51:51;;;;;;;17.60;11.05;;;;;;;;;;10280675;28;20164;-61
2022/02/06 11:56:49;;;;;;;10.82;7.95;;;;;;;;;;10282534;28;20485;-63
2022/02/06 12:01:48;;;;;;;20.63;12.68;;;;;;;;;;10279510;28;20108;-63
2022/02/06 12:06:55;;;;;;;15.13;7.50;;;;;;;;;;10271846;28;20095;-61
2022/02/06 12:12:11;;;;;;;14.10;9.07;;;;;;;;;;10281163;28;20072;-61
2022/02/06 12:17:16;;;;;;;;;;;;;;;;;;10279817;28;20064;-62
2022/02/06 12:22:37;;;;;;;21.98;16.73;;;;;;;;;;10285614;28;19947;-62
2022/02/06 12:27:36;;;;;;;9.45;6.40;;;;;;;;;;10281621;28;20065;-61
2022/02/06 12:32:35;;;;;;;9.70;6.45;;;;;;;;;;10282839;28;20084;-62
2022/02/06 12:37:34;;;;;;;14.68;9.88;;;;;;;;;;10282466;28;20395;-61
2022/02/06 12:42:33;;;;;;;38.97;18.85;;;;;;;;;;10278056;28;20068;-62
2022/02/06 12:47:33;;;;;;;12.20;7.32;;;;;;;;;;10284014;28;20508;-62
2022/02/06 12:52:35;;;;;;;11.00;6.40;;;;;;;;;;10278444;28;20114;-62
2022/02/06 12:57:41;;;;;;;14.70;10.02;;;;;;;;;;10280035;28;20458;-61
2022/02/06 13:02:41;;;;;;;7.68;4.68;;;;;;;;;;10282523;28;20080;-62
2022/02/06 13:07:42;;;;;;;5.55;3.45;;;;;;;;;;10275253;28;20064;-62
2022/02/06 13:12:47;;;;;;;9.55;6.63;;;;;;;;;;10279434;28;20529;-61
2022/02/06 13:18:06;;;;;;;10.83;6.80;;;;;;;;;;10285927;28;20076;-61
2022/02/06 13:23:12;;;;;;;5.10;4.30;;;;;;;;;;10276434;28;20093;-63
2022/02/06 13:28:24;;;;;;;21.52;12.07;;;;;;;;;;10272450;28;20064;-61
2022/02/06 13:38:49;;;;;;;10.70;5.20;;;;;;;;;;10274121;28;20106;-63
2022/02/06 13:43:50;;;;;;;7.25;5.85;;;;;;;;;;10278415;28;20072;-62
2022/02/06 13:48:50;;;;;;;17.63;10.55;;;;;;;;;;10276478;28;20073;-62
2022/02/06 13:53:56;;;;;;;18.50;10.15;;;;;;;;;;10275358;28;20100;-63
2022/02/06 13:58:59;;;;;;;12.20;8.75;;;;;;;;;;10282472;28;20076;-62
2022/02/06 14:03:58;;;;;;;20.80;14.30;;;;;;;;;;10280932;28;20087;-61
2022/02/06 14:08:57;;;;;;;7.75;4.90;;;;;;;;;;10277954;28;20068;-61
2022/02/06 14:14:10;;;;;;;10.35;7.35;;;;;;;;;;10277304;28;20119;-62
2022/02/06 14:19:11;;;;;;;20.10;12.13;;;;;;;;;;10273789;28;20080;-61
2022/02/06 14:24:09;;;;;;;7.10;5.88;;;;;;;;;;10274995;28;20466;-60
2022/02/06 14:29:16;;;;;;;9.38;6.00;;;;;;;;;;10274808;28;20087;-62
2022/02/06 14:34:17;;;;;;;8.02;6.97;;;;;;;;;;10270552;28;20087;-62
2022/02/06 14:39:20;;;;;;;10.07;7.43;;;;;;;;;;10275518;28;20073;-62
2022/02/06 14:44:25;;;;;;;7.85;6.20;;;;;;;;;;10268721;28;20122;-61
2022/02/06 14:49:27;;;;;;;11.50;7.83;;;;;;;;;;10274210;28;20076;-62
2022/02/06 14:54:31;;;;;;;19.25;13.27;;;;;;;;;;10275181;28;20338;-62
2022/02/06 14:59:30;;;;;;;20.35;11.55;;;;;;;;;;10280517;28;20095;-61
2022/02/06 15:04:29;;;;;;;12.50;10.23;;;;;;;;;;10281801;28;20064;-62
2022/02/06 15:09:28;;;;;;;13.75;9.40;;;;;;;;;;10283437;28;20068;-62
2022/02/06 15:14:26;;;;;;;38.20;24.55;;;;;;;;;;10277514;28;20076;-63
2022/02/06 15:19:29;;;;;;;15.68;13.32;;;;;;;;;;10278628;28;20536;-62
2022/02/06 15:24:29;;;;;;;18.13;11.85;;;;;;;;;;10277854;28;20071;-63
2022/02/06 15:29:29;;;;;;;22.25;14.65;;;;;;;;;;10277304;28;20504;-62
2022/02/06 15:34:29;;;;;;;23.77;15.48;;;;;;;;;;10279463;28;20292;-63
2022/02/06 15:39:35;;;;;;;25.42;18.63;;;;;;;;;;10280506;28;20076;-63
2022/02/06 15:44:33;;;;;;;39.03;25.33;;;;;;;;;;10278048;28;20478;-64
2022/02/06 15:49:34;;;;;;;189.48;108.07;;;;;;;;;;10276786;28;20060;-65
2022/02/06 15:54:34;;;;;;;47.75;35.05;;;;;;;;;;10286716;28;20099;-64
2022/02/06 15:59:33;;;;;;;29.65;19.63;;;;;;;;;;10276393;28;20080;-64
2022/02/06 16:04:31;;;;;;;50.35;38.10;;;;;;;;;;10279024;28;20079;-64
2022/02/06 16:09:31;;;;;;;67.93;42.30;;;;;;;;;;10278000;28;20518;-61
2022/02/06 16:14:30;;;;;;;74.80;44.97;;;;;;;;;;10281846;28;20084;-63
2022/02/06 16:19:29;;;;;;;79.30;47.83;;;;;;;;;;10282375;28;20485;-62
2022/02/06 16:24:27;;;;;;;45.47;27.98;;;;;;;;;;10283180;28;20060;-62
2022/02/06 16:29:26;;;;;;;122.53;78.70;;;;;;;;;;10282058;28;20083;-64
2022/02/06 16:34:26;;;;;;;34.53;27.60;;;;;;;;;;10283841;28;20073;-61
2022/02/06 16:39:25;;;;;;;75.05;52.70;;;;;;;;;;10285808;28;20076;-63
2022/02/06 16:44:24;;;;;;;70.28;49.60;;;;;;;;;;10284430;28;20072;-63
2022/02/06 16:49:22;;;;;;;40.53;27.25;;;;;;;;;;10281663;28;20064;-62
2022/02/06 16:54:22;;;;;;;34.22;23.13;;;;;;;;;;10286996;28;20502;-62
2022/02/06 16:59:20;;;;;;;28.90;19.35;;;;;;;;;;10278073;28;20064;-63
2022/02/06 17:04:18;;;;;;;20.33;12.75;;;;;;;;;;10278297;28;20065;-63
2022/02/06 17:09:17;;;;;;;19.00;13.05;;;;;;;;;;10280767;28;20061;-63
2022/02/06 17:14:17;;;;;;;23.25;15.07;;;;;;;;;;10279522;28;20178;-63
2022/02/06 17:19:16;;;;;;;26.73;17.58;;;;;;;;;;10280305;28;20087;-63
2022/02/06 17:24:15;;;;;;;62.00;35.70;;;;;;;;;;10279631;28;20065;-63
2022/02/06 17:29:15;;;;;;;38.90;26.42;;;;;;;;;;10281459;28;20075;-62
2022/02/06 17:34:15;;;;;;;27.50;19.27;;;;;;;;;;10279427;28;20076;-63
2022/02/06 17:39:14;;;;;;;22.90;11.85;;;;;;;;;;10283671;28;20068;-63
2022/02/06 17:44:12;;;;;;;11.27;8.52;;;;;;;;;;10282067;28;20419;-63
2022/02/06 17:49:11;;;;;;;13.65;11.07;;;;;;;;;;10280568;28;20477;-64
2022/02/06 17:54:10;;;;;;;10.60;8.77;;;;;;;;;;10284838;28;20076;-63
2022/02/06 17:59:10;;;;;;;13.05;7.88;;;;;;;;;;10283387;28;20076;-62
2022/02/06 18:04:09;;;;;;;20.98;12.25;;;;;;;;;;10284077;28;20045;-63
2022/02/06 18:09:07;;;;;;;20.40;10.73;;;;;;;;;;10281598;28;20041;-63
2022/02/06 18:14:07;;;;;;;16.08;8.23;;;;;;;;;;10280275;28;20079;-62
2022/02/06 18:19:05;;;;;;;9.75;7.57;;;;;;;;;;10279424;28;20056;-63
2022/02/06 18:24:04;;;;;;;11.73;8.95;;;;;;;;;;10279133;28;20065;-62
2022/02/06 18:29:23;;;;;;;22.10;12.32;;;;;;;;;;10280336;28;20076;-62
2022/02/06 18:34:22;;;;;;;10.60;8.05;;;;;;;;;;10279536;28;20065;-63
2022/02/06 18:39:20;;;;;;;15.48;10.52;;;;;;;;;;10281242;28;20081;-63
2022/02/06 18:44:18;;;;;;;9.02;7.03;;;;;;;;;;10281236;28;20053;-64
2022/02/06 18:49:21;;;;;;;14.40;9.30;;;;;;;;;;10282188;28;20528;-63
2022/02/06 18:54:23;;;;;;;12.95;8.73;;;;;;;;;;10279594;28;21056;-62
2022/02/06 18:59:27;;;;;;;14.05;7.32;;;;;;;;;;10274489;28;20041;-63
2022/02/06 19:04:28;;;;;;;14.98;10.75;;;;;;;;;;10276280;28;20080;-63
2022/02/06 19:09:28;;;;;;;19.55;13.23;;;;;;;;;;10272824;28;20076;-63
2022/02/06 19:14:26;;;;;;;19.13;13.63;;;;;;;;;;10279768;28;20506;-62
2022/02/06 19:19:25;;;;;;;12.68;8.85;;;;;;;;;;10274026;28;20080;-63
2022/02/06 19:24:25;;;;;;;28.17;19.48;;;;;;;;;;10273342;28;20068;-62
2022/02/06 19:29:25;;;;;;;31.63;18.30;;;;;;;;;;10276055;28;20076;-63
2022/02/06 19:34:30;;;;;;;43.70;25.15;;;;;;;;;;10275070;28;20471;-63
2022/02/06 19:39:28;;;;;;;;;;;;;;;;;;10271670;28;20071;-63
2022/02/06 19:44:28;;;;;;;91.43;49.03;;;;;;;;;;10279353;28;19964;-63
2022/02/06 19:49:27;;;;;;;106.13;47.78;;;;;;;;;;10283228;28;20053;-61
2022/02/06 19:54:25;;;;;;;28.17;17.20;;;;;;;;;;10283139;28;20140;-62
2022/02/06 19:59:23;;;;;;;11.30;7.72;;;;;;;;;;10278664;28;20061;-62
2022/02/06 20:04:23;;;;;;;9.82;6.75;;;;;;;;;;10281296;28;20067;-61
2022/02/06 20:09:23;;;;;;;12.98;8.52;;;;;;;;;;10280603;28;20064;-61
2022/02/06 20:14:21;;;;;;;11.23;6.93;;;;;;;;;;10283091;28;20068;-62
2022/02/06 20:19:19;;;;;;;7.90;6.10;;;;;;;;;;10283906;28;20596;-61
2022/02/06 20:24:19;;;;;;;6.63;5.38;;;;;;;;;;10283473;28;20079;-62
2022/02/06 20:29:18;;;;;;;46.83;23.30;;;;;;;;;;10288838;28;20067;-62
2022/02/06 20:34:18;;;;;;;20.60;12.93;;;;;;;;;;10285413;28;20080;-62
2022/02/06 20:39:16;;;;;;;11.70;8.93;;;;;;;;;;10287893;28;20068;-63
2022/02/06 20:44:16;;;;;;;11.38;6.78;;;;;;;;;;10281916;28;20112;-62
2022/02/06 20:49:14;;;;;;;24.75;18.35;;;;;;;;;;10282864;28;20061;-62
2022/02/06 20:54:12;;;;;;;7.93;7.13;;;;;;;;;;10282077;28;20064;-63
2022/02/06 20:59:11;;;;;;;8.95;7.97;;;;;;;;;;10278683;28;20065;-62
2022/02/06 21:04:12;;;;;;;9.75;7.95;;;;;;;;;;10281316;28;20075;-63
2022/02/06 21:09:11;;;;;;;13.48;10.10;;;;;;;;;;10282512;28;20048;-63
2022/02/06 21:14:09;;;;;;;6.88;6.13;;;;;;;;;;10284112;28;20491;-63
2022/02/06 21:19:07;;;;;;;8.05;6.15;;;;;;;;;;10284035;28;20502;-63
2022/02/06 21:24:07;;;;;;;7.75;4.68;;;;;;;;;;10283062;28;20482;-63
2022/02/06 21:29:06;;;;;;;10.35;9.25;;;;;;;;;;10280241;28;20081;-63
2022/02/06 21:34:04;;;;;;;9.25;7.55;;;;;;;;;;10280952;28;20095;-62
2022/02/06 21:39:02;;;;;;;9.60;7.20;;;;;;;;;;10279958;28;20118;-63
2022/02/06 21:44:02;;;;;;;38.88;24.73;;;;;;;;;;10284775;28;20081;-63
2022/02/06 21:49:01;;;;;;;16.95;10.90;;;;;;;;;;10282408;28;20508;-63
2022/02/06 21:53:59;;;;;;;25.65;20.80;;;;;;;;;;10284135;28;20045;-65
2022/02/06 21:58:57;;;;;;;34.63;23.23;;;;;;;;;;10274992;28;20073;-64
2022/02/06 22:03:58;;;;;;;45.60;32.58;;;;;;;;;;10279668;28;20064;-64
2022/02/06 22:09:01;;;;;;;10.80;8.15;;;;;;;;;;10278246;28;20071;-63
2022/02/06 22:24:49;;;;;;;11.57;9.57;;;;;;;;;;10278469;28;20509;-63
2022/02/06 22:29:48;;;;;;;7.93;6.65;;;;;;;;;;10282260;28;20075;-63
2022/02/06 22:34:48;;;;;;;7.82;6.72;;;;;;;;;;10275337;28;20068;-63
2022/02/06 22:39:46;;;;;;;6.70;5.45;;;;;;;;;;10274898;28;20088;-63
2022/02/06 22:44:45;;;;;;;6.78;5.95;;;;;;;;;;10278430;28;20152;-62
2022/02/06 22:49:44;;;;;;;15.75;10.30;;;;;;;;;;10284348;28;20072;-61
2022/02/06 22:54:45;;;;;;;9.00;8.05;;;;;;;;;;10281952;28;20522;-63
2022/02/06 22:59:45;;;;;;;7.88;5.50;;;;;;;;;;10281635;28;20072;-63
2022/02/06 23:04:44;;;;;;;8.10;5.30;;;;;;;;;;10286164;28;20068;-62
2022/02/06 23:09:44;;;;;;;6.18;4.75;;;;;;;;;;10283513;28;20076;-62
2022/02/06 23:14:44;;;;;;;6.63;5.47;;;;;;;;;;10283526;28;20463;-62
2022/02/06 23:19:42;;;;;;;7.25;5.20;;;;;;;;;;10286660;28;20077;-62
2022/02/06 23:24:40;;;;;;;5.50;4.72;;;;;;;;;;10291799;28;20076;-62
2022/02/06 23:29:38;;;;;;;6.68;5.93;;;;;;;;;;10287307;28;20072;-63
2022/02/06 23:34:39;;;;;;;8.15;5.53;;;;;;;;;;10291709;28;20064;-62
2022/02/06 23:39:38;;;;;;;8.68;6.18;;;;;;;;;;10291126;28;20466;-62
2022/02/06 23:44:36;;;;;;;7.93;5.35;;;;;;;;;;10283556;28;20036;-63
2022/02/06 23:49:34;;;;;;;6.97;5.95;;;;;;;;;;10284473;28;20087;-63
2022/02/06 23:54:48;;;;;;;8.38;6.55;;;;;;;;;;10284372;28;20556;-63
2022/02/06 23:59:54;;;;;;;11.23;6.50;;;;;;;;;;10285417;28;20080;-64
